Time;durP1;ratioP1;P1;durP2;ratioP2;P2;SDS_P1;SDS_P2;PMS_P1;PMS_P2;Temp;Humidity;BMP_temperature;BMP_pressure;BME280_temperature;BME280_humidity;BME280_pressure;Samples;Min_cycle;Max_cycle;Signal;HPM_P1;HPM_P2
2022/03/07 00:00:48;;;;;;;27.93;2.90;;;;;;;22.68;53.92;100224.81;7310437;19;158132;-39
2022/03/07 00:03:13;;;;;;;28.10;2.87;;;;;;;22.56;54.75;100216.22;7311611;19;130402;-39
2022/03/07 00:05:39;;;;;;;46.28;4.20;;;;;;;22.61;54.92;100236.81;7310916;19;130837;-40
2022/03/07 00:08:04;;;;;;;18.50;2.10;;;;;;;22.60;55.17;100240.38;7308057;19;154776;-39
2022/03/07 00:10:29;;;;;;;28.02;2.83;;;;;;;22.58;54.96;100244.91;7311912;19;153720;-39
2022/03/07 00:12:55;;;;;;;26.23;2.70;;;;;;;22.60;55.86;100243.00;7309734;19;158248;-37
2022/03/07 00:15:20;;;;;;;43.22;4.00;;;;;;;22.63;55.22;100240.09;7313207;19;129163;-39
2022/03/07 00:17:46;;;;;;;26.17;2.50;;;;;;;22.62;55.33;100241.91;7306015;19;155136;-38
2022/03/07 00:20:12;;;;;;;41.40;3.88;;;;;;;22.60;55.66;100249.06;7309473;19;131161;-39
2022/03/07 00:22:37;;;;;;;19.00;2.10;;;;;;;22.58;55.26;100252.75;7311533;19;132120;-41
2022/03/07 00:25:03;;;;;;;29.10;2.70;;;;;;;22.55;55.77;100255.66;7311777;19;129306;-39
2022/03/07 00:27:28;;;;;;;17.52;1.92;;;;;;;22.58;54.99;100256.22;7308434;19;130229;-38
2022/03/07 00:29:53;;;;;;;16.55;1.83;;;;;;;22.62;54.52;100251.56;7311791;19;158570;-41
2022/03/07 00:32:18;;;;;;;27.98;2.88;;;;;;;22.70;54.48;100254.34;7309283;19;159527;-39
2022/03/07 00:34:44;;;;;;;20.08;2.25;;;;;;;22.80;53.92;100252.59;7311903;19;154471;-39
2022/03/07 00:37:09;;;;;;;19.95;2.22;;;;;;;22.95;52.96;100248.66;7306659;19;153456;-41
2022/03/07 00:39:34;;;;;;;23.02;2.47;;;;;;;23.06;52.77;100252.03;7310345;19;130728;-39
2022/03/07 00:41:59;;;;;;;30.73;2.88;;;;;;;23.10;52.54;100234.22;7308953;19;157662;-39
2022/03/07 00:44:25;;;;;;;17.58;1.88;;;;;;;23.30;52.41;100254.34;7310630;19;154656;-38
2022/03/07 00:46:50;;;;;;;26.10;2.85;;;;;;;23.40;51.58;100244.69;7307142;19;129884;-39
2022/03/07 00:49:15;;;;;;;37.35;3.58;;;;;;;23.42;51.36;100261.09;7311711;19;134571;-40
2022/03/07 00:51:41;;;;;;;18.90;2.03;;;;;;;23.38;51.96;100256.28;7308052;19;156800;-39
2022/03/07 00:54:06;;;;;;;32.73;3.20;;;;;;;23.34;51.81;100255.72;7306793;19;155339;-38
2022/03/07 00:56:31;;;;;;;22.23;2.35;;;;;;;23.27;52.25;100253.78;7311747;19;129466;-36
2022/03/07 00:58:56;;;;;;;16.20;1.73;;;;;;;23.23;52.32;100255.81;7309195;19;158932;-38
2022/03/07 01:01:22;;;;;;;27.98;2.75;;;;;;;23.17;51.94;100253.72;7317902;19;129913;-39
2022/03/07 01:03:47;;;;;;;23.80;2.53;;;;;;;23.09;52.10;100250.91;7316791;19;129327;-38
2022/03/07 01:06:13;;;;;;;73.03;6.93;;;;;;;23.03;52.53;100251.47;7312861;19;154300;-39
2022/03/07 01:08:39;;;;;;;28.83;3.03;;;;;;;22.97;53.29;100246.75;7309037;19;130823;-39
2022/03/07 01:11:05;;;;;;;18.73;2.17;;;;;;;22.92;53.29;100235.81;7318508;19;131730;-38
2022/03/07 01:13:31;;;;;;;24.23;2.40;;;;;;;22.84;53.44;100239.09;7316494;19;129828;-38
2022/03/07 01:15:56;;;;;;;49.00;4.75;;;;;;;22.78;54.11;100233.56;7315279;19;129079;-40
2022/03/07 01:18:21;;;;;;;4.57;1.07;;;;;;;22.73;53.49;100238.34;7315759;19;130214;-39
2022/03/07 01:20:47;;;;;;;23.10;2.60;;;;;;;22.69;54.46;100236.97;7317528;19;130636;-39
2022/03/07 01:23:12;;;;;;;28.98;2.60;;;;;;;22.64;54.27;100228.69;7317431;19;131611;-38
2022/03/07 01:25:37;;;;;;;25.63;2.67;;;;;;;22.51;54.50;100217.56;7316533;19;129580;-39
2022/03/07 01:28:03;;;;;;;18.40;2.05;;;;;;;22.57;54.36;100233.63;7313169;19;158411;-40
2022/03/07 01:30:28;;;;;;;26.97;2.50;;;;;;;22.46;54.54;100214.47;7317438;19;130091;-39
2022/03/07 01:32:53;;;;;;;57.87;5.37;;;;;;;22.54;55.38;100231.25;7314151;19;130224;-40
2022/03/07 01:35:20;;;;;;;43.90;4.18;;;;;;;22.54;55.34;100222.56;7315342;19;130896;-41
2022/03/07 01:37:46;;;;;;;22.58;2.28;;;;;;;22.54;55.29;100225.19;7311876;19;130186;-40
2022/03/07 01:40:11;;;;;;;29.77;3.03;;;;;;;22.50;55.06;100221.94;7310418;19;129939;-39
2022/03/07 01:42:37;;;;;;;21.50;2.10;;;;;;;22.46;54.65;100211.88;7317983;19;129305;-38
2022/03/07 01:45:08;;;;;;;24.95;2.58;;;;;;;22.58;55.06;100218.69;7314479;19;155128;-39
2022/03/07 01:47:34;;;;;;;31.30;2.75;;;;;;;22.68;54.29;100225.66;7314212;19;129498;-40
2022/03/07 01:49:59;;;;;;;27.48;3.08;;;;;;;22.74;53.87;100222.50;7314942;19;130986;-40
2022/03/07 01:52:24;;;;;;;24.88;2.40;;;;;;;22.86;53.66;100242.41;7313197;19;154467;-38
2022/03/07 01:54:49;;;;;;;35.23;3.27;;;;;;;22.95;53.31;100232.94;7316307;19;154284;-40
2022/03/07 01:57:15;;;;;;;26.52;2.85;;;;;;;23.11;52.68;100234.09;7308094;19;150383;-39
2022/03/07 01:59:40;;;;;;;31.98;3.20;;;;;;;23.20;52.36;100222.78;7313267;19;158641;-39
2022/03/07 02:02:06;;;;;;;27.17;2.90;;;;;;;23.34;51.84;100228.66;7315421;19;154528;-40
2022/03/07 02:04:31;;;;;;;17.92;1.90;;;;;;;23.27;51.32;100211.78;7315353;19;154609;-40
2022/03/07 02:06:56;;;;;;;22.48;2.22;;;;;;;23.33;52.08;100219.97;7313086;19;130770;-39
2022/03/07 02:09:22;;;;;;;29.83;2.93;;;;;;;23.31;52.16;100213.16;7317396;19;134014;-38
2022/03/07 02:11:47;;;;;;;19.90;2.28;;;;;;;23.27;51.71;100217.03;7313166;19;129405;-39
2022/03/07 02:14:20;;;;;;;30.93;3.17;;;;;;;23.22;52.10;100220.84;7315292;19;154014;-40
2022/03/07 02:16:46;;;;;;;29.42;2.67;;;;;;;23.14;52.70;100215.47;7312722;19;129507;-38
2022/03/07 02:19:13;;;;;;;28.63;2.93;;;;;;;23.09;52.84;100217.66;7315374;19;132929;-39
2022/03/07 02:21:41;;;;;;;;;;;;;;;23.03;52.94;100209.50;7315716;19;129255;-38
2022/03/07 02:24:07;;;;;;;25.90;2.58;;;;;;;22.95;52.65;100207.56;7315599;19;128904;-38
2022/03/07 02:26:32;;;;;;;20.52;1.95;;;;;;;22.89;53.63;100197.56;7313002;19;129886;-38
2022/03/07 02:28:58;;;;;;;21.77;2.45;;;;;;;22.83;53.05;100207.78;7315909;19;129605;-38
2022/03/07 02:31:23;;;;;;;12.13;1.38;;;;;;;22.76;53.93;100204.00;7312658;19;128955;-39
2022/03/07 02:33:49;;;;;;;21.90;2.30;;;;;;;22.69;53.73;100205.53;7314464;19;129037;-38
2022/03/07 02:36:14;;;;;;;36.20;3.40;;;;;;;22.55;53.87;100180.50;7314696;19;129852;-38
2022/03/07 02:38:39;;;;;;;25.77;2.75;;;;;;;22.59;54.70;100194.16;7306610;19;159364;-39
2022/03/07 02:41:05;;;;;;;24.10;2.17;;;;;;;22.55;54.57;100184.91;7313515;19;154543;-39
2022/03/07 02:43:30;;;;;;;25.98;2.42;;;;;;;22.55;54.49;100187.50;7313067;19;129917;-38
2022/03/07 02:45:58;;;;;;;13.53;1.77;;;;;;;22.53;54.88;100189.44;7313285;19;158284;-40
2022/03/07 02:48:26;;;;;;;24.70;2.38;;;;;;;22.51;54.90;100186.91;7312437;19;131007;-37
2022/03/07 02:50:52;;;;;;;15.00;1.88;;;;;;;22.50;55.18;100197.53;7315695;19;128975;-41
2022/03/07 02:53:17;;;;;;;42.63;3.77;;;;;;;22.47;55.22;100195.16;7313464;19;129248;-39
2022/03/07 02:55:43;;;;;;;37.70;3.93;;;;;;;22.51;54.60;100196.59;7313501;19;130895;-38
2022/03/07 02:58:08;;;;;;;34.72;3.47;;;;;;;22.56;54.63;100197.88;7311257;19;131300;-38
2022/03/07 03:00:33;;;;;;;18.08;1.77;;;;;;;22.63;53.96;100203.41;7316457;19;129304;-37
2022/03/07 03:02:59;;;;;;;51.53;4.60;;;;;;;22.75;54.10;100199.75;7312208;19;129430;-39
2022/03/07 03:05:25;;;;;;;94.83;8.17;;;;;;;22.86;53.03;100202.25;7308741;19;138163;-40
2022/03/07 03:07:51;;;;;;;34.93;3.30;;;;;;;22.97;53.21;100204.78;7296968;19;131691;-39
2022/03/07 03:10:17;;;;;;;37.00;3.53;;;;;;;23.08;52.96;100208.13;7314439;19;130152;-40
2022/03/07 03:12:44;;;;;;;51.88;4.90;;;;;;;23.12;52.30;100183.28;7313283;19;129390;-38
2022/03/07 03:15:10;;;;;;;26.08;2.65;;;;;;;23.32;52.05;100191.22;7313967;19;130419;-38
2022/03/07 03:17:39;;;;;;;33.47;2.87;;;;;;;23.40;51.43;100192.22;7311033;19;130267;-38
2022/03/07 03:20:04;;;;;;;6.60;1.10;;;;;;;23.46;51.12;100198.69;7312477;19;129280;-38
2022/03/07 03:22:31;;;;;;;29.35;2.63;;;;;;;23.42;51.40;100194.69;7313299;19;131073;-37
2022/03/07 03:24:56;;;;;;;17.80;1.67;;;;;;;23.36;51.30;100198.69;7312603;19;130757;-38
2022/03/07 03:27:21;;;;;;;40.93;3.47;;;;;;;23.31;51.59;100205.28;7309734;19;131372;-38
2022/03/07 03:29:47;;;;;;;23.47;2.10;;;;;;;23.23;51.88;100200.72;7312948;19;129914;-38
2022/03/07 03:32:12;;;;;;;28.30;2.60;;;;;;;23.16;52.22;100195.19;7311795;19;154640;-38
2022/03/07 03:34:37;;;;;;;30.73;2.83;;;;;;;23.13;52.41;100205.94;7312937;19;144060;-38
2022/03/07 03:37:03;;;;;;;26.55;2.60;;;;;;;23.06;52.29;100203.97;7309056;19;130310;-39
2022/03/07 03:39:28;;;;;;;4.93;0.93;;;;;;;22.98;52.40;100196.78;7309614;19;154788;-38
2022/03/07 03:41:53;;;;;;;36.65;3.22;;;;;;;22.84;53.09;100193.72;7312610;19;153928;-40
2022/03/07 03:44:19;;;;;;;35.05;3.20;;;;;;;22.84;53.39;100207.63;7307336;19;159294;-39
2022/03/07 03:46:44;;;;;;;21.10;2.20;;;;;;;22.79;53.18;100201.16;7308629;19;157380;-38
2022/03/07 03:49:09;;;;;;;25.20;2.58;;;;;;;22.71;53.48;100193.13;7311282;19;154455;-39
2022/03/07 03:51:34;;;;;;;18.08;2.22;;;;;;;22.70;54.34;100200.16;7311312;19;141702;-41
2022/03/07 03:54:00;;;;;;;27.75;2.72;;;;;;;22.65;54.04;100204.13;7312279;19;148924;-40
2022/03/07 03:56:26;;;;;;;41.40;3.87;;;;;;;22.69;53.75;100197.66;7308327;19;129236;-40
2022/03/07 03:58:51;;;;;;;29.80;2.90;;;;;;;22.82;53.65;100199.09;7310586;19;143228;-39
2022/03/07 04:01:16;;;;;;;29.17;2.67;;;;;;;23.04;53.19;100195.41;7311410;19;153054;-39
2022/03/07 04:03:41;;;;;;;30.15;2.72;;;;;;;23.21;52.06;100198.22;7312295;19;131166;-38
2022/03/07 04:06:08;;;;;;;30.85;3.00;;;;;;;23.48;51.47;100192.34;7307035;19;158674;-38
2022/03/07 04:08:34;;;;;;;29.23;2.50;;;;;;;23.70;50.89;100194.69;7309061;19;129504;-38
2022/03/07 04:10:59;;;;;;;32.42;2.88;;;;;;;23.87;50.66;100191.38;7309413;19;148094;-39
2022/03/07 04:13:24;;;;;;;17.77;1.85;;;;;;;24.08;50.09;100197.31;7310997;19;159075;-40
2022/03/07 04:15:49;;;;;;;55.70;4.87;;;;;;;24.19;48.90;100198.97;7308370;19;159586;-37
2022/03/07 04:18:15;;;;;;;26.67;2.42;;;;;;;24.39;48.64;100193.50;7308159;19;153037;-38
2022/03/07 04:20:40;;;;;;;27.40;2.60;;;;;;;24.48;49.07;100202.31;7311669;19;129549;-38
2022/03/07 04:23:06;;;;;;;23.02;2.28;;;;;;;24.57;48.29;100205.91;7309700;19;159332;-38
2022/03/07 04:25:33;;;;;;;43.22;4.40;;;;;;;24.69;47.70;100204.78;7308928;19;131787;-39
2022/03/07 04:27:58;;;;;;;26.45;2.47;;;;;;;24.73;48.15;100200.88;7309140;19;129332;-39
2022/03/07 04:30:24;;;;;;;17.83;1.73;;;;;;;24.75;47.77;100204.19;7311387;19;129347;-38
2022/03/07 04:32:49;;;;;;;24.40;2.15;;;;;;;24.72;47.85;100204.50;7308728;19;158305;-38
2022/03/07 04:35:14;;;;;;;44.90;3.97;;;;;;;24.64;48.11;100197.31;7308907;19;157446;-42
2022/03/07 04:37:40;;;;;;;41.70;3.60;;;;;;;24.63;48.62;100210.56;7306414;19;154865;-38
2022/03/07 04:40:10;;;;;;;23.88;2.33;;;;;;;24.61;48.29;100207.28;7309896;19;129036;-41
2022/03/07 04:42:36;;;;;;;7.20;1.05;;;;;;;24.52;48.16;100216.00;7312111;19;129266;-39
2022/03/07 04:45:01;;;;;;;49.93;4.23;;;;;;;24.32;49.14;100200.31;7310275;19;129183;-39
2022/03/07 04:47:26;;;;;;;4.70;0.87;;;;;;;24.33;48.68;100215.09;7309045;19;130802;-38
2022/03/07 04:49:52;;;;;;;36.15;3.05;;;;;;;24.22;49.38;100217.91;7309587;19;154175;-39
2022/03/07 04:52:17;;;;;;;29.70;2.97;;;;;;;24.11;49.23;100225.13;7310754;19;147823;-37
2022/03/07 04:54:42;;;;;;;29.87;3.03;;;;;;;23.99;49.81;100224.44;7309947;19;157052;-39
2022/03/07 04:57:08;;;;;;;17.75;1.98;;;;;;;23.85;50.48;100221.38;7307031;19;129072;-40
2022/03/07 04:59:33;;;;;;;17.67;1.75;;;;;;;23.75;50.24;100223.97;7310903;19;130284;-38
2022/03/07 05:01:58;;;;;;;32.83;2.78;;;;;;;23.60;50.52;100214.03;7306393;19;156752;-39
2022/03/07 05:04:23;;;;;;;31.20;2.73;;;;;;;23.57;51.57;100228.25;7309275;19;130351;-39
2022/03/07 05:06:49;;;;;;;64.87;5.97;;;;;;;23.48;51.17;100231.72;7301654;19;154856;-38
2022/03/07 05:09:14;;;;;;;75.65;6.10;;;;;;;23.39;51.69;100237.78;7294273;19;154923;-39
2022/03/07 05:11:39;;;;;;;20.80;2.00;;;;;;;23.35;51.87;100244.28;7306018;19;158596;-38
2022/03/07 05:14:04;;;;;;;41.72;3.88;;;;;;;23.26;52.32;100237.16;7308319;19;131249;-39
2022/03/07 05:16:30;;;;;;;27.98;2.67;;;;;;;23.21;52.10;100249.84;7303864;19;154378;-38
2022/03/07 05:18:55;;;;;;;34.92;3.22;;;;;;;23.13;52.49;100249.69;7308708;19;154249;-39
2022/03/07 05:21:21;;;;;;;50.33;4.15;;;;;;;23.05;52.93;100246.91;7307113;19;130500;-39
2022/03/07 05:23:46;;;;;;;36.10;3.33;;;;;;;23.00;53.76;100246.47;7309312;19;158356;-38
2022/03/07 05:26:11;;;;;;;52.63;4.63;;;;;;;22.95;53.39;100248.66;7304916;19;155009;-39
2022/03/07 05:28:37;;;;;;;29.57;2.63;;;;;;;22.92;53.62;100248.94;7305822;19;154900;-40
2022/03/07 05:31:02;;;;;;;26.47;2.63;;;;;;;22.91;53.68;100247.25;7306487;19;158544;-39
2022/03/07 05:33:27;;;;;;;78.80;6.15;;;;;;;22.72;54.57;100239.34;7305617;19;130244;-40
2022/03/07 05:35:52;;;;;;;50.13;4.13;;;;;;;22.77;54.45;100245.00;7306124;19;152335;-38
2022/03/07 05:38:18;;;;;;;33.40;3.25;;;;;;;22.69;54.60;100236.97;7307159;19;146990;-39
2022/03/07 05:40:43;;;;;;;24.38;2.35;;;;;;;22.71;54.93;100250.78;7302782;19;158427;-39
2022/03/07 05:43:08;;;;;;;23.45;2.08;;;;;;;22.65;55.00;100248.66;7307392;19;157734;-39
2022/03/07 05:45:34;;;;;;;24.27;2.40;;;;;;;22.76;54.91;100256.44;7306877;19;154750;-39
2022/03/07 05:47:59;;;;;;;29.07;2.77;;;;;;;22.73;55.24;100254.09;7312280;19;129636;-39
2022/03/07 05:50:24;;;;;;;30.48;2.80;;;;;;;22.73;56.11;100259.31;7314565;19;133056;-38
2022/03/07 05:52:50;;;;;;;22.70;2.20;;;;;;;22.73;55.45;100264.56;7314719;19;132265;-39
2022/03/07 05:55:15;;;;;;;40.73;4.00;;;;;;;22.67;56.02;100265.09;7311475;19;152925;-40
2022/03/07 05:57:40;;;;;;;39.10;3.37;;;;;;;22.59;55.32;100264.94;7313583;19;133473;-39
2022/03/07 06:00:08;;;;;;;13.70;1.43;;;;;;;22.61;54.90;100266.44;7311195;19;158067;-38
2022/03/07 06:02:34;;;;;;;42.63;3.53;;;;;;;22.63;54.10;100263.69;7314613;19;131226;-39
2022/03/07 06:04:59;;;;;;;28.30;2.57;;;;;;;22.60;54.43;100261.34;7314201;19;129131;-38
2022/03/07 06:07:24;;;;;;;24.95;2.40;;;;;;;22.70;54.16;100264.84;7314030;19;133741;-38
2022/03/07 06:09:50;;;;;;;62.63;5.07;;;;;;;22.79;53.90;100264.06;7308677;19;158374;-39
2022/03/07 06:12:15;;;;;;;19.77;2.45;;;;;;;22.86;53.69;100265.19;7314193;19;152849;-39
2022/03/07 06:14:40;;;;;;;25.98;2.40;;;;;;;22.78;53.63;100252.75;7315804;19;129438;-39
2022/03/07 06:17:06;;;;;;;24.27;2.28;;;;;;;22.98;52.61;100266.75;7312003;19;145078;-39
2022/03/07 06:19:31;;;;;;;43.03;4.10;;;;;;;23.06;52.69;100266.91;7312432;19;159152;-38
2022/03/07 06:21:56;;;;;;;58.40;5.15;;;;;;;23.16;52.54;100270.41;7308403;19;136128;-38
2022/03/07 06:24:21;;;;;;;32.42;3.20;;;;;;;23.23;52.00;100269.75;7313161;19;157126;-38
2022/03/07 06:26:47;;;;;;;25.20;2.42;;;;;;;23.23;51.99;100272.38;7311922;19;152927;-38
2022/03/07 06:29:12;;;;;;;44.33;4.00;;;;;;;23.34;51.97;100281.16;7307738;19;157990;-38
2022/03/07 06:31:37;;;;;;;21.85;2.17;;;;;;;23.34;51.46;100287.19;7314183;19;129259;-38
2022/03/07 06:34:03;;;;;;;29.40;2.85;;;;;;;23.31;51.98;100287.47;7314818;19;129739;-41
2022/03/07 06:36:28;;;;;;;14.02;1.60;;;;;;;23.35;52.06;100293.28;7313255;19;129866;-37
2022/03/07 06:38:53;;;;;;;24.67;2.47;;;;;;;23.31;51.52;100297.97;7310069;19;129272;-39
2022/03/07 06:41:19;;;;;;;22.65;2.25;;;;;;;23.25;51.90;100304.53;7310595;19;158218;-39
2022/03/07 06:43:44;;;;;;;18.92;1.92;;;;;;;23.15;51.77;100284.50;7314267;19;154904;-38
2022/03/07 06:46:09;;;;;;;14.00;1.48;;;;;;;23.17;52.11;100293.88;7313698;19;129634;-40
2022/03/07 06:48:35;;;;;;;19.02;1.90;;;;;;;23.07;52.60;100305.31;7310820;19;158412;-39
2022/03/07 06:51:01;;;;;;;35.92;3.25;;;;;;;23.05;52.19;100300.22;7313233;19;131261;-38
2022/03/07 06:53:26;;;;;;;43.37;3.87;;;;;;;23.04;52.50;100300.31;7312740;19;129225;-39
2022/03/07 06:55:52;;;;;;;17.52;1.65;;;;;;;22.95;52.54;100293.25;7311315;19;154034;-39
2022/03/07 06:58:18;;;;;;;34.15;2.85;;;;;;;23.01;52.55;100300.56;7311744;19;130349;-39
2022/03/07 07:00:44;;;;;;;51.93;4.83;;;;;;;23.05;53.10;100307.22;7308861;19;130927;-40
2022/03/07 07:03:09;;;;;;;43.63;3.80;;;;;;;23.07;52.99;100315.81;7307487;19;130655;-38
2022/03/07 07:05:34;;;;;;;22.47;2.03;;;;;;;23.12;52.09;100298.69;7305319;19;154075;-39
2022/03/07 07:07:59;;;;;;;75.97;6.97;;;;;;;23.37;51.78;100313.16;7298973;19;160672;-40
2022/03/07 07:10:25;;;;;;;24.70;2.20;;;;;;;23.41;51.69;100314.56;7303046;19;150509;-38
2022/03/07 07:12:51;;;;;;;23.20;2.55;;;;;;;23.34;50.15;100323.94;7312133;19;129222;-39
2022/03/07 07:15:17;;;;;;;142.60;11.10;;;;;;;23.44;49.63;100327.41;7301098;19;130697;-38
2022/03/07 07:17:42;;;;;;;33.77;3.10;;;;;;;23.58;50.65;100319.19;7305233;19;129774;-38
2022/03/07 07:20:10;;;;;;;12.48;1.48;;;;;;;23.67;50.49;100326.25;7306801;19;130768;-41
2022/03/07 07:22:36;;;;;;;33.33;3.15;;;;;;;23.73;48.67;100319.63;7310043;19;129975;-38
2022/03/07 07:25:03;;;;;;;57.05;5.20;;;;;;;23.82;49.98;100306.50;7308061;19;129258;-37
2022/03/07 07:27:28;;;;;;;39.75;3.78;;;;;;;23.91;49.59;100307.47;7302755;19;131470;-38
2022/03/07 07:29:54;;;;;;;36.15;3.55;;;;;;;23.90;49.97;100296.13;7306667;19;132069;-38
2022/03/07 07:32:19;;;;;;;56.83;5.10;;;;;;;24.05;49.88;100315.81;7306550;19;129093;-39
2022/03/07 07:34:44;;;;;;;35.93;3.30;;;;;;;23.96;49.66;100300.84;7304734;19;154148;-38
2022/03/07 07:37:10;;;;;;;60.28;5.25;;;;;;;24.09;50.06;100321.63;7302098;19;134798;-37
2022/03/07 07:39:35;;;;;;;44.85;3.88;;;;;;;23.95;50.19;100304.44;7306419;19;147834;-40
2022/03/07 07:42:00;;;;;;;43.83;3.63;;;;;;;23.96;50.24;100305.28;7307475;19;129142;-37
2022/03/07 07:44:26;;;;;;;34.50;3.13;;;;;;;23.97;50.84;100317.44;7307060;19;154020;-39
2022/03/07 07:46:52;;;;;;;93.25;8.15;;;;;;;23.95;50.46;100320.19;7303085;19;130312;-38
2022/03/07 07:49:17;;;;;;;67.60;5.63;;;;;;;23.80;51.35;100310.25;7305192;19;131545;-40
2022/03/07 07:51:42;;;;;;;54.28;4.75;;;;;;;23.84;50.92;100322.97;7305410;19;130077;-37
2022/03/07 07:54:08;;;;;;;51.33;4.38;;;;;;;23.69;51.20;100298.06;7307702;19;130218;-38
2022/03/07 07:56:33;;;;;;;46.55;4.20;;;;;;;23.82;51.24;100324.03;7306607;19;130521;-38
2022/03/07 07:58:58;;;;;;;35.40;3.67;;;;;;;23.57;46.69;100330.63;7303502;19;158014;-37
2022/03/07 08:01:24;;;;;;;35.83;3.97;;;;;;;23.44;45.25;100329.22;7307276;19;154528;-39
2022/03/07 08:03:49;;;;;;;45.05;4.38;;;;;;;23.31;45.92;100321.59;7307970;19;136188;-38
2022/03/07 08:06:14;;;;;;;59.73;5.43;;;;;;;23.23;45.89;100326.63;7307101;19;130857;-40
2022/03/07 08:08:40;;;;;;;30.92;3.15;;;;;;;23.14;46.30;100322.16;7300017;19;158451;-39
2022/03/07 08:11:05;;;;;;;29.73;3.27;;;;;;;23.05;46.97;100317.72;7306425;19;129364;-37
2022/03/07 08:13:30;;;;;;;33.10;3.58;;;;;;;22.98;46.82;100321.81;7303692;19;153993;-37
2022/03/07 08:15:56;;;;;;;63.87;5.50;;;;;;;22.93;47.43;100321.38;7304170;19;152662;-38
2022/03/07 08:18:21;;;;;;;57.03;5.75;;;;;;;22.87;47.04;100327.16;7300943;19;144820;-38
2022/03/07 08:20:46;;;;;;;36.28;3.63;;;;;;;22.91;47.86;100324.16;7304385;19;135670;-40
2022/03/07 08:23:12;;;;;;;48.88;4.63;;;;;;;22.91;48.54;100331.16;7306014;19;129170;-38
2022/03/07 08:25:37;;;;;;;32.60;3.13;;;;;;;23.00;48.89;100331.25;7305670;19;158474;-38
2022/03/07 08:28:03;;;;;;;51.03;4.60;;;;;;;23.03;49.68;100335.38;7301989;19;157894;-39
2022/03/07 08:30:28;;;;;;;36.47;3.42;;;;;;;23.04;49.51;100322.13;7306076;19;129602;-39
2022/03/07 08:32:54;;;;;;;39.63;3.63;;;;;;;23.18;48.99;100328.81;7306777;19;130063;-41
2022/03/07 08:35:20;;;;;;;86.47;8.20;;;;;;;23.32;48.96;100333.72;7303620;19;130654;-40
2022/03/07 08:37:47;;;;;;;39.67;3.85;;;;;;;23.38;49.24;100335.84;7299166;19;131231;-39
2022/03/07 08:40:15;;;;;;;47.20;4.32;;;;;;;23.46;49.44;100336.00;7303536;19;130693;-38
2022/03/07 08:42:41;;;;;;;73.45;6.57;;;;;;;23.57;49.50;100335.06;7304434;19;129057;-39
2022/03/07 08:45:07;;;;;;;63.83;6.15;;;;;;;23.61;49.62;100342.53;7305096;19;130261;-39
2022/03/07 08:47:34;;;;;;;34.90;3.50;;;;;;;23.68;49.15;100335.78;7301869;19;129778;-39
2022/03/07 08:49:59;;;;;;;;;;;;;;;23.64;45.37;100333.53;7307886;19;129411;-40
2022/03/07 08:52:24;;;;;;;37.17;3.90;;;;;;;23.76;45.79;100335.94;7304252;19;130244;-38
2022/03/07 08:54:50;;;;;;;62.85;5.90;;;;;;;23.81;47.63;100341.63;7304223;19;158278;-39
2022/03/07 08:57:15;;;;;;;48.93;4.63;;;;;;;23.76;48.06;100320.19;7303446;19;137707;-39
2022/03/07 08:59:41;;;;;;;43.50;4.25;;;;;;;23.82;48.57;100339.78;7303879;19;130334;-39
2022/03/07 09:02:09;;;;;;;35.53;3.30;;;;;;;23.84;48.77;100337.88;7306641;19;129184;-38
2022/03/07 09:04:35;;;;;;;44.97;3.75;;;;;;;23.75;48.50;100334.25;7304840;19;130272;-39
2022/03/07 09:07:00;;;;;;;88.45;7.60;;;;;;;23.72;49.02;100329.28;7298001;19;131743;-40
2022/03/07 09:09:26;;;;;;;42.60;4.10;;;;;;;23.76;49.35;100338.56;7289327;19;151954;-38
2022/03/07 09:11:51;;;;;;;57.40;4.72;;;;;;;23.82;49.40;100330.13;7304967;19;130096;-39
2022/03/07 09:14:17;;;;;;;39.77;3.77;;;;;;;23.75;49.68;100329.00;7306810;19;129192;-39
2022/03/07 09:16:42;;;;;;;37.87;3.73;;;;;;;23.80;49.81;100323.38;7302469;19;130201;-39
2022/03/07 09:19:08;;;;;;;37.72;3.53;;;;;;;23.67;49.35;100305.22;7303830;19;154411;-39
2022/03/07 09:21:34;;;;;;;35.17;3.58;;;;;;;23.54;43.71;100311.69;7311065;19;129140;-39
2022/03/07 09:24:00;;;;;;;35.10;3.63;;;;;;;23.51;43.27;100310.19;7313744;19;129697;-40
2022/03/07 09:26:25;;;;;;;26.10;3.00;;;;;;;23.45;45.13;100310.72;7309521;19;130116;-38
2022/03/07 09:28:51;;;;;;;47.77;4.63;;;;;;;23.41;45.09;100309.31;7308256;19;129488;-39
2022/03/07 09:31:16;;;;;;;45.13;3.78;;;;;;;23.55;46.16;100308.13;7309041;19;154259;-39
2022/03/07 09:33:42;;;;;;;19.83;2.45;;;;;;;23.62;46.20;100311.88;7308865;19;158556;-39
2022/03/07 09:36:08;;;;;;;52.13;4.93;;;;;;;23.64;47.26;100308.13;7307565;19;158574;-39
2022/03/07 09:38:37;;;;;;;37.17;3.40;;;;;;;23.62;47.73;100304.81;7308371;19;128861;-39
2022/03/07 09:41:04;;;;;;;33.35;3.33;;;;;;;23.63;47.85;100308.28;7308695;19;130354;-39
2022/03/07 09:43:30;;;;;;;33.22;3.30;;;;;;;23.61;48.28;100313.66;7311376;19;130152;-40
2022/03/07 09:45:55;;;;;;;34.85;3.15;;;;;;;23.54;48.48;100303.81;7310937;19;129273;-40
2022/03/07 09:48:22;;;;;;;37.83;3.30;;;;;;;23.52;48.84;100305.78;7310407;19;129048;-38
2022/03/07 09:50:48;;;;;;;42.63;4.10;;;;;;;23.48;49.44;100305.22;7313020;19;129205;-38
2022/03/07 09:53:13;;;;;;;41.53;3.65;;;;;;;23.45;49.03;100310.72;7312904;19;130222;-38
2022/03/07 09:55:39;;;;;;;32.77;2.93;;;;;;;23.48;49.87;100315.72;7310126;19;157871;-40
2022/03/07 09:58:06;;;;;;;24.45;2.58;;;;;;;23.46;49.76;100307.13;7312776;19;129296;-40
2022/03/07 10:00:31;;;;;;;34.97;2.97;;;;;;;23.49;50.13;100312.09;7309604;19;129420;-38
2022/03/07 10:03:05;;;;;;;48.90;4.53;;;;;;;23.44;49.94;100298.56;7312080;19;130802;-40
2022/03/07 10:05:36;;;;;;;90.82;7.72;;;;;;;23.53;50.24;100308.25;7309428;19;131327;-40
2022/03/07 10:08:01;;;;;;;32.15;2.95;;;;;;;23.45;49.96;100300.22;7307140;19;130622;-39
2022/03/07 10:10:35;;;;;;;31.55;2.80;;;;;;;23.55;50.18;100285.31;7311832;19;129303;-40
2022/03/07 10:13:09;;;;;;;32.90;3.08;;;;;;;23.59;49.91;100309.50;7311236;19;129741;-41
2022/03/07 10:15:35;;;;;;;39.33;3.63;;;;;;;23.63;50.37;100303.88;7310463;19;129421;-38
2022/03/07 10:18:00;;;;;;;40.40;3.67;;;;;;;23.58;50.37;100306.06;7309080;19;129801;-42
2022/03/07 10:20:26;;;;;;;49.20;4.68;;;;;;;23.58;50.82;100300.81;7311208;19;130549;-38
2022/03/07 10:22:54;;;;;;;42.40;3.80;;;;;;;23.55;50.29;100301.06;7312648;19;130281;-39
2022/03/07 10:25:28;;;;;;;88.82;7.97;;;;;;;23.49;50.47;100296.34;7309993;19;130344;-39
2022/03/07 10:27:55;;;;;;;49.72;4.18;;;;;;;23.50;50.69;100305.91;7306556;19;130209;-39
2022/03/07 10:30:25;;;;;;;;;;;;;;;23.41;51.15;100301.44;7312622;19;129494;-38
2022/03/07 10:32:54;;;;;;;35.00;3.08;;;;;;;23.42;51.29;100304.91;7309467;19;130812;-39
2022/03/07 10:35:48;;;;;;;37.65;3.53;;;;;;;23.39;51.50;100302.56;7309316;19;130291;-41
2022/03/07 10:38:15;;;;;;;30.98;2.70;;;;;;;23.39;51.41;100306.00;7304242;19;129014;-38
2022/03/07 10:40:52;;;;;;;36.55;3.50;;;;;;;23.36;51.81;100298.41;7309042;19;129179;-38
2022/03/07 10:43:18;;;;;;;29.00;2.58;;;;;;;23.25;51.49;100288.00;7311423;19;131883;-41
2022/03/07 10:45:52;;;;;;;44.08;4.18;;;;;;;23.33;51.51;100290.81;7307893;19;129294;-41
2022/03/07 10:48:19;;;;;;;33.10;3.13;;;;;;;23.31;51.93;100290.09;7308045;19;129342;-39
2022/03/07 10:50:53;;;;;;;28.27;2.65;;;;;;;23.37;52.01;100286.13;7311419;19;129580;-38
2022/03/07 10:53:19;;;;;;;26.55;2.63;;;;;;;23.32;51.79;100281.25;7310813;19;130357;-39
2022/03/07 10:55:56;;;;;;;34.47;3.13;;;;;;;23.35;52.10;100283.63;7308327;19;129169;-38
2022/03/07 10:58:22;;;;;;;35.03;3.28;;;;;;;23.32;52.17;100281.25;7307579;19;129136;-40
2022/03/07 11:01:00;;;;;;;18.97;2.10;;;;;;;23.27;52.39;100283.44;7309054;19;130427;-38
2022/03/07 11:03:28;;;;;;;;;;;;;;;23.24;52.47;100281.06;7310356;19;133295;-39